sensor_id;sensor_type;location;lat;lon;timestamp;P1;durP1;ratioP1;P2;durP2;ratioP2
16039;SDS011;8124;48.634;8.120;2023-02-12T00:04:43;50.00;;;42.30;;
16039;SDS011;8124;48.634;8.120;2023-02-12T00:09:48;54.38;;;45.60;;
16039;SDS011;8124;48.634;8.120;2023-02-12T00:14:53;56.05;;;46.38;;
16039;SDS011;8124;48.634;8.120;2023-02-12T00:19:56;57.08;;;46.30;;
16039;SDS011;8124;48.634;8.120;2023-02-12T00:24:58;62.45;;;48.55;;
16039;SDS011;8124;48.634;8.120;2023-02-12T00:30:03;60.05;;;48.38;;
16039;SDS011;8124;48.634;8.120;2023-02-12T00:35:08;56.78;;;45.83;;
16039;SDS011;8124;48.634;8.120;2023-02-12T00:40:13;54.83;;;45.15;;
16039;SDS011;8124;48.634;8.120;2023-02-12T00:45:17;55.92;;;45.78;;
16039;SDS011;8124;48.634;8.120;2023-02-12T00:50:20;56.53;;;44.63;;
16039;SDS011;8124;48.634;8.120;2023-02-12T00:55:23;58.28;;;46.63;;
16039;SDS011;8124;48.634;8.120;2023-02-12T01:00:28;56.05;;;44.85;;
16039;SDS011;8124;48.634;8.120;2023-02-12T01:05:31;57.15;;;45.50;;
16039;SDS011;8124;48.634;8.120;2023-02-12T01:10:34;59.38;;;45.60;;
16039;SDS011;8124;48.634;8.120;2023-02-12T01:15:39;57.85;;;45.55;;
16039;SDS011;8124;48.634;8.120;2023-02-12T01:20:42;59.35;;;46.42;;
16039;SDS011;8124;48.634;8.120;2023-02-12T01:25:45;59.47;;;46.72;;
16039;SDS011;8124;48.634;8.120;2023-02-12T01:30:49;55.65;;;46.10;;
16039;SDS011;8124;48.634;8.120;2023-02-12T01:35:52;56.17;;;46.90;;
16039;SDS011;8124;48.634;8.120;2023-02-12T01:41:00;56.75;;;45.45;;
16039;SDS011;8124;48.634;8.120;2023-02-12T01:46:06;57.75;;;45.40;;
16039;SDS011;8124;48.634;8.120;2023-02-12T01:51:13;56.45;;;46.10;;
16039;SDS011;8124;48.634;8.120;2023-02-12T01:56:20;60.10;;;45.63;;
16039;SDS011;8124;48.634;8.120;2023-02-12T02:01:27;54.17;;;45.03;;
16039;SDS011;8124;48.634;8.120;2023-02-12T02:06:34;57.28;;;45.72;;
16039;SDS011;8124;48.634;8.120;2023-02-12T02:11:41;55.88;;;44.50;;
16039;SDS011;8124;48.634;8.120;2023-02-12T02:22:30;57.72;;;45.28;;
16039;SDS011;8124;48.634;8.120;2023-02-12T02:27:39;58.20;;;46.03;;
16039;SDS011;8124;48.634;8.120;2023-02-12T02:32:54;56.13;;;45.30;;
16039;SDS011;8124;48.634;8.120;2023-02-12T02:38:04;55.60;;;44.80;;
16039;SDS011;8124;48.634;8.120;2023-02-12T02:43:14;58.78;;;46.75;;
16039;SDS011;8124;48.634;8.120;2023-02-12T02:48:21;59.33;;;46.80;;
16039;SDS011;8124;48.634;8.120;2023-02-12T02:53:29;55.33;;;45.85;;
16039;SDS011;8124;48.634;8.120;2023-02-12T02:58:36;55.08;;;45.08;;
16039;SDS011;8124;48.634;8.120;2023-02-12T03:03:46;54.80;;;45.33;;
16039;SDS011;8124;48.634;8.120;2023-02-12T03:08:53;55.58;;;44.13;;
16039;SDS011;8124;48.634;8.120;2023-02-12T03:14:01;54.70;;;45.28;;
16039;SDS011;8124;48.634;8.120;2023-02-12T03:19:10;55.67;;;45.63;;
16039;SDS011;8124;48.634;8.120;2023-02-12T03:24:19;56.30;;;45.35;;
16039;SDS011;8124;48.634;8.120;2023-02-12T03:29:25;56.45;;;46.00;;
16039;SDS011;8124;48.634;8.120;2023-02-12T03:39:44;58.05;;;45.30;;
16039;SDS011;8124;48.634;8.120;2023-02-12T03:44:55;52.85;;;44.95;;
16039;SDS011;8124;48.634;8.120;2023-02-12T03:50:05;56.25;;;45.45;;
16039;SDS011;8124;48.634;8.120;2023-02-12T03:55:11;57.00;;;45.72;;
16039;SDS011;8124;48.634;8.120;2023-02-12T04:00:18;58.15;;;46.75;;
16039;SDS011;8124;48.634;8.120;2023-02-12T04:05:24;53.65;;;45.10;;
16039;SDS011;8124;48.634;8.120;2023-02-12T04:10:29;54.22;;;44.85;;
16039;SDS011;8124;48.634;8.120;2023-02-12T04:15:41;59.30;;;45.30;;
16039;SDS011;8124;48.634;8.120;2023-02-12T04:20:56;55.15;;;45.00;;
16039;SDS011;8124;48.634;8.120;2023-02-12T04:26:05;55.50;;;44.88;;
16039;SDS011;8124;48.634;8.120;2023-02-12T04:31:16;53.33;;;44.53;;
16039;SDS011;8124;48.634;8.120;2023-02-12T04:36:28;56.05;;;44.85;;
16039;SDS011;8124;48.634;8.120;2023-02-12T04:41:36;51.47;;;44.13;;
16039;SDS011;8124;48.634;8.120;2023-02-12T04:46:39;54.47;;;44.15;;
16039;SDS011;8124;48.634;8.120;2023-02-12T04:51:43;52.70;;;43.65;;
16039;SDS011;8124;48.634;8.120;2023-02-12T04:56:47;54.58;;;45.28;;
16039;SDS011;8124;48.634;8.120;2023-02-12T05:01:51;60.63;;;46.60;;
16039;SDS011;8124;48.634;8.120;2023-02-12T05:06:55;53.65;;;44.95;;
16039;SDS011;8124;48.634;8.120;2023-02-12T05:11:58;57.00;;;45.80;;
16039;SDS011;8124;48.634;8.120;2023-02-12T05:17:01;55.25;;;45.50;;
16039;SDS011;8124;48.634;8.120;2023-02-12T05:22:06;55.15;;;45.75;;
16039;SDS011;8124;48.634;8.120;2023-02-12T05:27:08;53.92;;;45.15;;
16039;SDS011;8124;48.634;8.120;2023-02-12T05:32:11;55.60;;;45.45;;
16039;SDS011;8124;48.634;8.120;2023-02-12T05:37:16;53.53;;;44.92;;
16039;SDS011;8124;48.634;8.120;2023-02-12T05:42:19;53.25;;;43.88;;
16039;SDS011;8124;48.634;8.120;2023-02-12T05:47:22;57.15;;;45.25;;
16039;SDS011;8124;48.634;8.120;2023-02-12T05:52:26;59.83;;;51.05;;
16039;SDS011;8124;48.634;8.120;2023-02-12T05:57:29;58.58;;;46.00;;
16039;SDS011;8124;48.634;8.120;2023-02-12T06:02:32;56.83;;;47.25;;
16039;SDS011;8124;48.634;8.120;2023-02-12T06:07:37;60.78;;;46.60;;
16039;SDS011;8124;48.634;8.120;2023-02-12T06:12:39;56.05;;;45.63;;
16039;SDS011;8124;48.634;8.120;2023-02-12T06:17:42;56.03;;;45.60;;
16039;SDS011;8124;48.634;8.120;2023-02-12T06:22:47;54.03;;;44.30;;
16039;SDS011;8124;48.634;8.120;2023-02-12T06:27:49;55.92;;;45.25;;
16039;SDS011;8124;48.634;8.120;2023-02-12T06:32:52;54.97;;;44.88;;
16039;SDS011;8124;48.634;8.120;2023-02-12T06:37:57;53.47;;;45.60;;
16039;SDS011;8124;48.634;8.120;2023-02-12T06:42:59;57.67;;;45.38;;
16039;SDS011;8124;48.634;8.120;2023-02-12T06:48:02;52.78;;;43.22;;
16039;SDS011;8124;48.634;8.120;2023-02-12T06:53:07;51.58;;;43.00;;
16039;SDS011;8124;48.634;8.120;2023-02-12T06:58:10;56.53;;;44.72;;
16039;SDS011;8124;48.634;8.120;2023-02-12T07:03:13;56.03;;;44.95;;
16039;SDS011;8124;48.634;8.120;2023-02-12T07:08:17;52.47;;;44.72;;
16039;SDS011;8124;48.634;8.120;2023-02-12T07:13:20;51.88;;;43.20;;
16039;SDS011;8124;48.634;8.120;2023-02-12T07:18:23;52.13;;;45.08;;
16039;SDS011;8124;48.634;8.120;2023-02-12T07:23:28;50.55;;;43.05;;
16039;SDS011;8124;48.634;8.120;2023-02-12T07:28:31;51.65;;;43.97;;
16039;SDS011;8124;48.634;8.120;2023-02-12T07:33:34;52.63;;;44.08;;
16039;SDS011;8124;48.634;8.120;2023-02-12T07:38:40;51.28;;;44.08;;
16039;SDS011;8124;48.634;8.120;2023-02-12T07:43:43;53.03;;;43.78;;
16039;SDS011;8124;48.634;8.120;2023-02-12T07:48:49;56.42;;;44.88;;
16039;SDS011;8124;48.634;8.120;2023-02-12T07:53:54;58.05;;;46.58;;
16039;SDS011;8124;48.634;8.120;2023-02-12T07:58:58;58.08;;;47.45;;
16039;SDS011;8124;48.634;8.120;2023-02-12T08:04:03;53.97;;;45.38;;
16039;SDS011;8124;48.634;8.120;2023-02-12T08:09:09;50.38;;;42.40;;
16039;SDS011;8124;48.634;8.120;2023-02-12T08:14:15;53.65;;;42.67;;
16039;SDS011;8124;48.634;8.120;2023-02-12T08:19:19;55.72;;;45.03;;
16039;SDS011;8124;48.634;8.120;2023-02-12T08:24:28;56.78;;;45.95;;
16039;SDS011;8124;48.634;8.120;2023-02-12T08:29:31;57.88;;;47.20;;
16039;SDS011;8124;48.634;8.120;2023-02-12T08:34:34;58.00;;;46.63;;
16039;SDS011;8124;48.634;8.120;2023-02-12T08:39:39;60.70;;;47.50;;
16039;SDS011;8124;48.634;8.120;2023-02-12T08:44:41;60.40;;;48.88;;
16039;SDS011;8124;48.634;8.120;2023-02-12T08:49:51;57.35;;;46.70;;
16039;SDS011;8124;48.634;8.120;2023-02-12T08:54:54;57.35;;;46.33;;
16039;SDS011;8124;48.634;8.120;2023-02-12T08:59:57;61.50;;;47.38;;
16039;SDS011;8124;48.634;8.120;2023-02-12T09:05:01;60.72;;;47.85;;
16039;SDS011;8124;48.634;8.120;2023-02-12T09:10:04;64.47;;;50.13;;
16039;SDS011;8124;48.634;8.120;2023-02-12T09:15:08;62.20;;;48.60;;
16039;SDS011;8124;48.634;8.120;2023-02-12T09:20:13;62.90;;;49.60;;
16039;SDS011;8124;48.634;8.120;2023-02-12T09:25:16;60.65;;;49.30;;
16039;SDS011;8124;48.634;8.120;2023-02-12T09:30:19;60.67;;;49.28;;
16039;SDS011;8124;48.634;8.120;2023-02-12T09:35:23;64.13;;;49.33;;
16039;SDS011;8124;48.634;8.120;2023-02-12T09:40:27;62.00;;;48.33;;
16039;SDS011;8124;48.634;8.120;2023-02-12T09:45:35;56.22;;;46.45;;
16039;SDS011;8124;48.634;8.120;2023-02-12T09:50:46;58.95;;;46.83;;
16039;SDS011;8124;48.634;8.120;2023-02-12T09:55:53;53.30;;;44.42;;
16039;SDS011;8124;48.634;8.120;2023-02-12T10:00:57;52.40;;;44.38;;
16039;SDS011;8124;48.634;8.120;2023-02-12T10:06:03;55.05;;;45.42;;
16039;SDS011;8124;48.634;8.120;2023-02-12T10:16:41;52.92;;;43.58;;
16039;SDS011;8124;48.634;8.120;2023-02-12T10:21:54;48.72;;;41.55;;
16039;SDS011;8124;48.634;8.120;2023-02-12T10:27:04;50.40;;;41.50;;
16039;SDS011;8124;48.634;8.120;2023-02-12T10:32:17;47.45;;;41.10;;
16039;SDS011;8124;48.634;8.120;2023-02-12T10:37:30;45.53;;;38.72;;
16039;SDS011;8124;48.634;8.120;2023-02-12T10:42:39;48.55;;;38.95;;
16039;SDS011;8124;48.634;8.120;2023-02-12T10:47:45;43.90;;;38.38;;
16039;SDS011;8124;48.634;8.120;2023-02-12T10:52:55;42.78;;;38.05;;
16039;SDS011;8124;48.634;8.120;2023-02-12T10:58:03;44.38;;;38.65;;
16039;SDS011;8124;48.634;8.120;2023-02-12T11:03:19;44.05;;;38.67;;
16039;SDS011;8124;48.634;8.120;2023-02-12T11:08:32;46.60;;;39.30;;
16039;SDS011;8124;48.634;8.120;2023-02-12T11:13:36;44.47;;;38.83;;
16039;SDS011;8124;48.634;8.120;2023-02-12T11:18:41;44.38;;;38.75;;
16039;SDS011;8124;48.634;8.120;2023-02-12T11:23:45;44.92;;;38.55;;
16039;SDS011;8124;48.634;8.120;2023-02-12T11:28:51;44.42;;;38.65;;
16039;SDS011;8124;48.634;8.120;2023-02-12T11:34:06;43.42;;;38.28;;
16039;SDS011;8124;48.634;8.120;2023-02-12T11:39:19;45.92;;;39.00;;
16039;SDS011;8124;48.634;8.120;2023-02-12T11:44:25;44.20;;;38.60;;
16039;SDS011;8124;48.634;8.120;2023-02-12T11:49:31;44.13;;;38.97;;
16039;SDS011;8124;48.634;8.120;2023-02-12T11:54:41;45.17;;;38.22;;
16039;SDS011;8124;48.634;8.120;2023-02-12T11:59:47;44.88;;;37.40;;
16039;SDS011;8124;48.634;8.120;2023-02-12T12:04:52;43.28;;;37.95;;
16039;SDS011;8124;48.634;8.120;2023-02-12T12:10:04;42.00;;;37.35;;
16039;SDS011;8124;48.634;8.120;2023-02-12T12:15:15;42.60;;;37.08;;
16039;SDS011;8124;48.634;8.120;2023-02-12T12:20:40;40.38;;;35.95;;
16039;SDS011;8124;48.634;8.120;2023-02-12T12:25:50;41.10;;;36.13;;
16039;SDS011;8124;48.634;8.120;2023-02-12T12:31:01;40.03;;;35.63;;
16039;SDS011;8124;48.634;8.120;2023-02-12T12:36:15;39.47;;;34.92;;
16039;SDS011;8124;48.634;8.120;2023-02-12T12:41:37;40.80;;;36.35;;
16039;SDS011;8124;48.634;8.120;2023-02-12T12:46:54;39.58;;;35.28;;
16039;SDS011;8124;48.634;8.120;2023-02-12T12:57:45;40.38;;;35.88;;
16039;SDS011;8124;48.634;8.120;2023-02-12T13:03:04;42.88;;;35.30;;
16039;SDS011;8124;48.634;8.120;2023-02-12T13:08:20;39.10;;;34.83;;
16039;SDS011;8124;48.634;8.120;2023-02-12T13:13:38;39.20;;;35.00;;
16039;SDS011;8124;48.634;8.120;2023-02-12T13:18:46;40.45;;;35.65;;
16039;SDS011;8124;48.634;8.120;2023-02-12T13:23:58;40.95;;;36.20;;
16039;SDS011;8124;48.634;8.120;2023-02-12T13:29:07;40.08;;;35.25;;
16039;SDS011;8124;48.634;8.120;2023-02-12T13:34:16;40.33;;;35.83;;
16039;SDS011;8124;48.634;8.120;2023-02-12T13:39:24;40.50;;;35.40;;
16039;SDS011;8124;48.634;8.120;2023-02-12T13:44:37;41.53;;;36.38;;
16039;SDS011;8124;48.634;8.120;2023-02-12T13:49:47;40.45;;;35.92;;
16039;SDS011;8124;48.634;8.120;2023-02-12T13:54:56;40.33;;;35.92;;
16039;SDS011;8124;48.634;8.120;2023-02-12T14:11:29;43.25;;;37.00;;
16039;SDS011;8124;48.634;8.120;2023-02-12T14:34:41;42.45;;;37.85;;
16039;SDS011;8124;48.634;8.120;2023-02-12T14:52:56;44.50;;;38.55;;
16039;SDS011;8124;48.634;8.120;2023-02-12T14:58:04;44.42;;;38.17;;
16039;SDS011;8124;48.634;8.120;2023-02-12T15:03:17;45.15;;;37.85;;
16039;SDS011;8124;48.634;8.120;2023-02-12T15:08:27;43.90;;;38.17;;
16039;SDS011;8124;48.634;8.120;2023-02-12T15:13:40;43.90;;;37.97;;
16039;SDS011;8124;48.634;8.120;2023-02-12T15:18:50;44.45;;;38.22;;
16039;SDS011;8124;48.634;8.120;2023-02-12T15:23:59;45.65;;;38.30;;
16039;SDS011;8124;48.634;8.120;2023-02-12T15:29:14;42.67;;;37.78;;
16039;SDS011;8124;48.634;8.120;2023-02-12T15:34:22;47.17;;;38.75;;
16039;SDS011;8124;48.634;8.120;2023-02-12T15:39:27;46.55;;;38.42;;
16039;SDS011;8124;48.634;8.120;2023-02-12T15:44:40;44.28;;;38.45;;
16039;SDS011;8124;48.634;8.120;2023-02-12T15:49:45;44.92;;;38.92;;
16039;SDS011;8124;48.634;8.120;2023-02-12T15:54:48;47.70;;;40.13;;
16039;SDS011;8124;48.634;8.120;2023-02-12T15:59:54;45.50;;;39.70;;
16039;SDS011;8124;48.634;8.120;2023-02-12T16:05:00;44.70;;;38.60;;
16039;SDS011;8124;48.634;8.120;2023-02-12T16:10:06;44.10;;;38.67;;
16039;SDS011;8124;48.634;8.120;2023-02-12T16:15:22;45.20;;;38.70;;
16039;SDS011;8124;48.634;8.120;2023-02-12T16:20:27;47.92;;;39.13;;
16039;SDS011;8124;48.634;8.120;2023-02-12T16:25:31;51.88;;;42.65;;
16039;SDS011;8124;48.634;8.120;2023-02-12T16:30:37;54.05;;;44.13;;
16039;SDS011;8124;48.634;8.120;2023-02-12T16:35:43;50.17;;;41.13;;
16039;SDS011;8124;48.634;8.120;2023-02-12T16:41:07;73.22;;;50.78;;
16039;SDS011;8124;48.634;8.120;2023-02-12T16:46:18;56.58;;;43.97;;
16039;SDS011;8124;48.634;8.120;2023-02-12T16:51:23;54.97;;;42.58;;
16039;SDS011;8124;48.634;8.120;2023-02-12T16:56:27;50.75;;;42.78;;
16039;SDS011;8124;48.634;8.120;2023-02-12T17:01:34;50.35;;;41.75;;
16039;SDS011;8124;48.634;8.120;2023-02-12T17:06:39;48.83;;;41.38;;
16039;SDS011;8124;48.634;8.120;2023-02-12T17:11:43;48.97;;;39.90;;
16039;SDS011;8124;48.634;8.120;2023-02-12T17:16:48;53.35;;;41.92;;
16039;SDS011;8124;48.634;8.120;2023-02-12T17:21:51;48.15;;;41.22;;
16039;SDS011;8124;48.634;8.120;2023-02-12T17:26:58;55.05;;;42.08;;
16039;SDS011;8124;48.634;8.120;2023-02-12T17:32:03;49.85;;;40.67;;
16039;SDS011;8124;48.634;8.120;2023-02-12T17:37:06;72.97;;;49.45;;
16039;SDS011;8124;48.634;8.120;2023-02-12T17:42:16;68.82;;;49.80;;
16039;SDS011;8124;48.634;8.120;2023-02-12T17:47:21;52.67;;;42.92;;
16039;SDS011;8124;48.634;8.120;2023-02-12T17:52:24;54.35;;;41.70;;
16039;SDS011;8124;48.634;8.120;2023-02-12T17:57:30;51.70;;;42.95;;
16039;SDS011;8124;48.634;8.120;2023-02-12T18:02:35;52.33;;;43.50;;
16039;SDS011;8124;48.634;8.120;2023-02-12T18:13:02;48.38;;;41.22;;
16039;SDS011;8124;48.634;8.120;2023-02-12T18:18:09;49.95;;;40.33;;
16039;SDS011;8124;48.634;8.120;2023-02-12T18:23:13;45.63;;;39.10;;
16039;SDS011;8124;48.634;8.120;2023-02-12T18:28:16;48.65;;;40.65;;
16039;SDS011;8124;48.634;8.120;2023-02-12T18:33:20;44.15;;;38.38;;
16039;SDS011;8124;48.634;8.120;2023-02-12T18:38:26;42.72;;;37.95;;
16039;SDS011;8124;48.634;8.120;2023-02-12T18:43:31;43.67;;;38.47;;
16039;SDS011;8124;48.634;8.120;2023-02-12T18:48:47;45.90;;;38.88;;
16039;SDS011;8124;48.634;8.120;2023-02-12T18:53:52;45.25;;;40.17;;
16039;SDS011;8124;48.634;8.120;2023-02-12T18:59:10;47.25;;;38.83;;
16039;SDS011;8124;48.634;8.120;2023-02-12T19:04:18;49.30;;;41.20;;
16039;SDS011;8124;48.634;8.120;2023-02-12T19:09:24;48.58;;;40.17;;
16039;SDS011;8124;48.634;8.120;2023-02-12T19:14:27;47.95;;;40.30;;
16039;SDS011;8124;48.634;8.120;2023-02-12T19:19:32;44.10;;;38.10;;
16039;SDS011;8124;48.634;8.120;2023-02-12T19:24:35;46.17;;;40.90;;
16039;SDS011;8124;48.634;8.120;2023-02-12T19:29:47;43.95;;;38.60;;
16039;SDS011;8124;48.634;8.120;2023-02-12T19:34:52;43.97;;;38.70;;
16039;SDS011;8124;48.634;8.120;2023-02-12T19:39:55;42.00;;;37.42;;
16039;SDS011;8124;48.634;8.120;2023-02-12T19:44:59;42.22;;;37.53;;
16039;SDS011;8124;48.634;8.120;2023-02-12T19:50:03;43.15;;;37.33;;
16039;SDS011;8124;48.634;8.120;2023-02-12T19:55:07;42.55;;;37.83;;
16039;SDS011;8124;48.634;8.120;2023-02-12T20:00:11;43.33;;;37.17;;
16039;SDS011;8124;48.634;8.120;2023-02-12T20:05:16;45.70;;;40.78;;
16039;SDS011;8124;48.634;8.120;2023-02-12T20:10:19;41.85;;;36.55;;
16039;SDS011;8124;48.634;8.120;2023-02-12T20:15:22;40.60;;;36.20;;
16039;SDS011;8124;48.634;8.120;2023-02-12T20:20:27;39.58;;;35.30;;
16039;SDS011;8124;48.634;8.120;2023-02-12T20:25:31;40.58;;;36.17;;
16039;SDS011;8124;48.634;8.120;2023-02-12T20:30:34;41.15;;;35.72;;
16039;SDS011;8124;48.634;8.120;2023-02-12T20:35:42;45.50;;;38.83;;
16039;SDS011;8124;48.634;8.120;2023-02-12T20:40:45;48.17;;;39.00;;
16039;SDS011;8124;48.634;8.120;2023-02-12T20:45:48;42.47;;;37.08;;
16039;SDS011;8124;48.634;8.120;2023-02-12T20:51:10;42.42;;;37.38;;
16039;SDS011;8124;48.634;8.120;2023-02-12T20:56:16;47.92;;;40.05;;
16039;SDS011;8124;48.634;8.120;2023-02-12T21:01:31;41.42;;;36.55;;
16039;SDS011;8124;48.634;8.120;2023-02-12T21:06:36;47.83;;;41.25;;
16039;SDS011;8124;48.634;8.120;2023-02-12T21:11:41;45.75;;;40.00;;
16039;SDS011;8124;48.634;8.120;2023-02-12T21:16:46;42.47;;;37.88;;
16039;SDS011;8124;48.634;8.120;2023-02-12T21:21:50;50.10;;;40.53;;
16039;SDS011;8124;48.634;8.120;2023-02-12T21:26:53;50.78;;;42.40;;
16039;SDS011;8124;48.634;8.120;2023-02-12T21:31:57;44.60;;;38.03;;
16039;SDS011;8124;48.634;8.120;2023-02-12T21:37:09;41.13;;;36.72;;
16039;SDS011;8124;48.634;8.120;2023-02-12T21:42:12;39.63;;;35.33;;
16039;SDS011;8124;48.634;8.120;2023-02-12T21:47:15;40.95;;;36.55;;
16039;SDS011;8124;48.634;8.120;2023-02-12T21:52:19;45.67;;;37.72;;
16039;SDS011;8124;48.634;8.120;2023-02-12T21:57:22;41.00;;;36.35;;
16039;SDS011;8124;48.634;8.120;2023-02-12T22:02:25;41.22;;;36.45;;
16039;SDS011;8124;48.634;8.120;2023-02-12T22:07:29;42.10;;;36.42;;
16039;SDS011;8124;48.634;8.120;2023-02-12T22:12:33;40.88;;;36.28;;
16039;SDS011;8124;48.634;8.120;2023-02-12T22:17:36;40.97;;;36.08;;
16039;SDS011;8124;48.634;8.120;2023-02-12T22:22:41;40.08;;;35.70;;
16039;SDS011;8124;48.634;8.120;2023-02-12T22:27:43;42.20;;;36.85;;
16039;SDS011;8124;48.634;8.120;2023-02-12T22:32:46;42.17;;;36.75;;
16039;SDS011;8124;48.634;8.120;2023-02-12T22:37:51;42.90;;;37.95;;
16039;SDS011;8124;48.634;8.120;2023-02-12T22:42:54;42.42;;;37.35;;
16039;SDS011;8124;48.634;8.120;2023-02-12T22:47:56;43.30;;;37.50;;
16039;SDS011;8124;48.634;8.120;2023-02-12T22:53:01;41.55;;;37.10;;
16039;SDS011;8124;48.634;8.120;2023-02-12T22:58:04;41.30;;;36.65;;
16039;SDS011;8124;48.634;8.120;2023-02-12T23:03:07;40.17;;;35.78;;
16039;SDS011;8124;48.634;8.120;2023-02-12T23:08:12;41.10;;;36.70;;
16039;SDS011;8124;48.634;8.120;2023-02-12T23:13:14;40.03;;;35.72;;
16039;SDS011;8124;48.634;8.120;2023-02-12T23:18:30;39.92;;;35.53;;
16039;SDS011;8124;48.634;8.120;2023-02-12T23:23:34;41.00;;;36.35;;
16039;SDS011;8124;48.634;8.120;2023-02-12T23:28:37;42.65;;;36.65;;
16039;SDS011;8124;48.634;8.120;2023-02-12T23:33:41;40.67;;;36.25;;
16039;SDS011;8124;48.634;8.120;2023-02-12T23:38:45;41.45;;;36.22;;
16039;SDS011;8124;48.634;8.120;2023-02-12T23:43:48;40.08;;;35.72;;
16039;SDS011;8124;48.634;8.120;2023-02-12T23:48:51;41.92;;;36.78;;
16039;SDS011;8124;48.634;8.120;2023-02-12T23:53:55;41.78;;;36.70;;
16039;SDS011;8124;48.634;8.120;2023-02-12T23:58:58;44.28;;;37.75;;
